createdAt,value
2022-11-24T00:00:01.916Z,814
2022-11-24T00:15:02.191Z,795
2022-11-24T00:30:05.350Z,779
2022-11-24T00:45:06.075Z,765
2022-11-24T01:00:05.142Z,750
2022-11-24T01:30:02.229Z,740
2022-11-24T01:45:04.849Z,731
2022-11-24T02:00:02.184Z,721
2022-11-24T02:15:05.859Z,716
2022-11-24T02:30:03.085Z,709
2022-11-24T02:45:06.026Z,703
2022-11-24T03:00:04.162Z,698
2022-11-24T03:15:06.072Z,697
2022-11-24T03:30:05.229Z,691
2022-11-24T03:45:02.967Z,689
2022-11-24T04:00:02.019Z,684
2022-11-24T04:15:02.224Z,681
2022-11-24T04:30:03.862Z,677
2022-11-24T04:45:06.382Z,676
2022-11-24T05:00:04.988Z,681
2022-11-24T05:15:05.328Z,694
2022-11-24T05:30:04.070Z,733
2022-11-24T05:45:05.879Z,773
2022-11-24T06:00:03.091Z,788
2022-11-24T06:15:02.129Z,783
2022-11-24T06:30:05.347Z,772
2022-11-24T06:45:03.090Z,734
2022-11-24T07:00:05.186Z,686
2022-11-24T07:15:04.944Z,668
2022-11-24T07:30:04.298Z,669
2022-11-24T07:45:04.244Z,670
2022-11-24T08:15:03.245Z,689
2022-11-24T08:30:04.439Z,707
2022-11-24T08:45:06.195Z,720
2022-11-24T09:00:02.517Z,737
2022-11-24T09:30:03.253Z,760
2022-11-24T09:45:04.367Z,767
2022-11-24T10:00:03.260Z,772
2022-11-24T10:15:05.271Z,781
2022-11-24T10:30:05.006Z,798
2022-11-24T10:45:05.173Z,807
2022-11-24T11:00:04.945Z,814
2022-11-24T11:15:06.271Z,829
2022-11-24T11:30:03.849Z,833
2022-11-24T11:45:03.327Z,826
2022-11-24T12:00:01.828Z,832
2022-11-24T12:15:02.196Z,852
2022-11-24T12:30:03.436Z,882
2022-11-24T12:45:04.970Z,931
2022-11-24T13:00:06.321Z,984
2022-11-24T13:15:04.444Z,1021
2022-11-24T13:30:02.395Z,1051
2022-11-24T13:45:05.539Z,1057
2022-11-24T14:00:02.297Z,1058
2022-11-24T14:15:02.036Z,1064
2022-11-24T14:30:05.277Z,1099
2022-11-24T14:45:03.605Z,1109
2022-11-24T15:00:03.071Z,1131
2022-11-24T15:15:02.094Z,1133
2022-11-24T15:30:05.305Z,1123
2022-11-24T15:45:05.932Z,1086
2022-11-24T16:00:03.197Z,1055
2022-11-24T16:15:04.346Z,1011
2022-11-24T16:30:04.209Z,965
2022-11-24T16:45:05.225Z,916
2022-11-24T17:15:03.993Z,862
2022-11-24T17:30:06.337Z,854
2022-11-24T17:45:04.981Z,858
2022-11-24T18:00:04.220Z,886
2022-11-24T18:15:04.245Z,914
2022-11-24T18:30:03.100Z,952
2022-11-24T18:45:06.265Z,994
2022-11-24T19:00:03.254Z,1022
2022-11-24T19:15:04.399Z,1051
2022-11-24T19:30:04.278Z,1085
2022-11-24T19:45:04.269Z,1118
2022-11-24T20:00:04.166Z,1152
2022-11-24T20:15:02.979Z,1199
2022-11-24T20:30:03.903Z,1233
2022-11-24T20:45:02.915Z,1252
2022-11-24T21:00:05.864Z,1253
2022-11-24T21:15:03.113Z,1237
2022-11-24T21:30:03.183Z,1212
2022-11-24T21:45:06.176Z,1182
2022-11-24T22:00:02.334Z,1147
2022-11-24T22:15:03.066Z,1117
2022-11-24T22:30:06.094Z,1086
2022-11-24T22:45:03.189Z,1060
2022-11-24T23:00:05.298Z,1031
2022-11-24T23:15:05.962Z,1014
2022-11-24T23:30:05.047Z,991
2022-11-24T23:45:02.365Z,975
